Time;durP1;ratioP1;P1;durP2;ratioP2;P2;SDS_P1;SDS_P2;PMS_P1;PMS_P2;Temp;Humidity;BMP_temperature;BMP_pressure;BME280_temperature;BME280_humidity;BME280_pressure;Samples;Min_cycle;Max_cycle;Signal;HPM_P1;HPM_P2
2024/04/20 00:02:11;;;;;;;1.23;0.88;;;;;;;;;;5474698;26;20004;-67
2024/04/20 00:04:41;;;;;;;0.80;0.80;;;;;;;;;;5487738;26;20558;-66
2024/04/20 00:07:12;;;;;;;1.17;0.90;;;;;;;;;;5481327;26;20400;-67
2024/04/20 00:09:42;;;;;;;0.95;0.80;;;;;;;;;;5464501;26;20359;-67
2024/04/20 00:12:14;;;;;;;0.93;0.93;;;;;;;;;;5483570;26;20436;-67
2024/04/20 00:14:44;;;;;;;1.35;0.90;;;;;;;;;;5488093;26;20308;-66
2024/04/20 00:17:18;;;;;;;1.52;1.10;;;;;;;;;;5495215;26;19998;-66
2024/04/20 00:19:48;;;;;;;1.60;0.88;;;;;;;;;;5486710;26;20472;-67
2024/04/20 00:22:18;;;;;;;0.93;0.93;;;;;;;;;;5486367;26;20070;-67
2024/04/20 00:24:51;;;;;;;1.05;0.88;;;;;;;;;;5487040;26;20013;-66
2024/04/20 00:27:21;;;;;;;1.10;1.00;;;;;;;;;;5485690;26;19998;-67
2024/04/20 00:29:51;;;;;;;1.60;1.02;;;;;;;;;;5488291;26;19998;-67
2024/04/20 00:32:24;;;;;;;1.25;1.00;;;;;;;;;;5486357;26;19998;-66
2024/04/20 00:34:55;;;;;;;1.52;1.10;;;;;;;;;;5495585;26;20018;-67
2024/04/20 00:37:25;;;;;;;1.92;1.67;;;;;;;;;;5472106;26;20070;-66
2024/04/20 00:39:55;;;;;;;1.00;1.00;;;;;;;;;;5486728;26;20003;-65
2024/04/20 00:42:25;;;;;;;1.05;0.88;;;;;;;;;;5495293;26;20002;-67
2024/04/20 00:44:55;;;;;;;1.20;0.80;;;;;;;;;;5475560;26;20003;-66
2024/04/20 00:47:28;;;;;;;0.95;0.90;;;;;;;;;;5485393;26;19998;-65
2024/04/20 00:49:59;;;;;;;4.28;1.00;;;;;;;;;;5487058;26;20017;-67
2024/04/20 00:52:29;;;;;;;2.05;0.73;;;;;;;;;;5482381;26;20010;-66
2024/04/20 00:54:59;;;;;;;0.70;0.70;;;;;;;;;;5496467;26;20014;-66
2024/04/20 00:57:30;;;;;;;0.60;0.60;;;;;;;;;;5481731;26;20335;-66
2024/04/20 01:00:00;;;;;;;0.98;0.80;;;;;;;;;;5486093;26;20017;-66
2024/04/20 01:02:33;;;;;;;0.70;0.70;;;;;;;;;;5495615;26;19994;-65
2024/04/20 01:05:03;;;;;;;0.70;0.70;;;;;;;;;;5486451;26;20459;-65
2024/04/20 01:07:33;;;;;;;0.70;0.70;;;;;;;;;;5477070;26;20010;-66
2024/04/20 01:10:04;;;;;;;0.98;0.90;;;;;;;;;;5473070;26;20002;-67
2024/04/20 01:12:35;;;;;;;0.70;0.70;;;;;;;;;;5469819;26;20481;-65
2024/04/20 01:15:06;;;;;;;0.80;0.80;;;;;;;;;;5485530;26;20010;-65
2024/04/20 01:17:38;;;;;;;1.27;0.73;;;;;;;;;;5485247;26;20017;-66
2024/04/20 01:20:13;;;;;;;0.60;0.60;;;;;;;;;;5485526;26;20502;-65
2024/04/20 01:22:44;;;;;;;0.68;0.68;;;;;;;;;;5472782;26;20464;-65
2024/04/20 01:25:14;;;;;;;1.67;0.90;;;;;;;;;;5479909;26;20082;-66
2024/04/20 01:27:47;;;;;;;0.60;0.60;;;;;;;;;;5488249;26;20343;-66
2024/04/20 01:30:18;;;;;;;0.93;0.70;;;;;;;;;;5484981;26;20038;-66
2024/04/20 01:32:48;;;;;;;0.70;0.70;;;;;;;;;;5488277;26;20437;-66
2024/04/20 01:35:20;;;;;;;1.95;0.80;;;;;;;;;;5502472;26;20013;-65
2024/04/20 01:37:51;;;;;;;0.82;0.70;;;;;;;;;;5485107;26;20009;-66
2024/04/20 01:40:21;;;;;;;0.80;0.80;;;;;;;;;;5475373;26;20002;-66
2024/04/20 01:42:54;;;;;;;1.02;0.90;;;;;;;;;;5478663;26;19998;-66
2024/04/20 01:45:24;;;;;;;1.45;0.80;;;;;;;;;;5475196;26;20018;-66
2024/04/20 01:47:54;;;;;;;0.80;0.80;;;;;;;;;;5473844;26;20014;-66
2024/04/20 01:50:24;;;;;;;0.93;0.77;;;;;;;;;;5493529;26;20075;-66
2024/04/20 01:52:54;;;;;;;2.15;0.70;;;;;;;;;;5474729;26;20402;-65
2024/04/20 01:55:24;;;;;;;0.90;0.80;;;;;;;;;;5496263;26;20002;-65
2024/04/20 01:57:57;;;;;;;0.98;0.90;;;;;;;;;;5481384;26;20332;-65
2024/04/20 02:00:27;;;;;;;0.70;0.70;;;;;;;;;;5485502;26;20017;-66
2024/04/20 02:02:57;;;;;;;1.75;0.80;;;;;;;;;;5494901;26;19998;-65
2024/04/20 02:05:27;;;;;;;0.98;0.88;;;;;;;;;;5487960;26;20013;-65
2024/04/20 02:07:58;;;;;;;1.52;0.95;;;;;;;;;;5476559;26;20014;-66
2024/04/20 02:10:28;;;;;;;1.90;0.82;;;;;;;;;;5498336;26;20523;-65
2024/04/20 02:13:01;;;;;;;0.77;0.70;;;;;;;;;;5485016;26;19994;-65
2024/04/20 02:15:31;;;;;;;0.80;0.80;;;;;;;;;;5484565;26;20005;-66
2024/04/20 02:18:02;;;;;;;2.28;0.90;;;;;;;;;;5485096;26;20002;-68
2024/04/20 02:20:32;;;;;;;2.25;0.80;;;;;;;;;;5493592;26;20045;-66
2024/04/20 02:23:02;;;;;;;3.80;0.80;;;;;;;;;;5473782;26;19995;-66
2024/04/20 02:25:33;;;;;;;2.70;0.90;;;;;;;;;;5483121;26;20002;-66
2024/04/20 02:28:05;;;;;;;1.17;0.80;;;;;;;;;;5475221;26;19998;-66
2024/04/20 02:30:36;;;;;;;1.05;0.70;;;;;;;;;;5475547;26;20005;-67
2024/04/20 02:33:06;;;;;;;0.77;0.77;;;;;;;;;;5484369;26;20074;-66
2024/04/20 02:35:40;;;;;;;1.08;0.90;;;;;;;;;;5477107;26;20363;-66
2024/04/20 02:38:10;;;;;;;0.90;0.80;;;;;;;;;;5481293;26;20308;-68
2024/04/20 02:40:40;;;;;;;1.02;0.90;;;;;;;;;;5484255;26;20007;-67
2024/04/20 02:43:13;;;;;;;1.00;0.90;;;;;;;;;;5473690;26;20757;-68
2024/04/20 02:45:43;;;;;;;1.02;0.80;;;;;;;;;;5471852;26;20002;-67
2024/04/20 02:48:13;;;;;;;1.02;0.93;;;;;;;;;;5467698;26;20878;-66
2024/04/20 02:50:43;;;;;;;1.00;0.88;;;;;;;;;;5469491;26;20006;-67
2024/04/20 02:53:13;;;;;;;0.90;0.80;;;;;;;;;;5477019;26;19998;-68
2024/04/20 02:55:44;;;;;;;0.73;0.73;;;;;;;;;;5482687;26;20006;-67
2024/04/20 02:58:16;;;;;;;1.75;0.90;;;;;;;;;;5483841;26;20488;-67
2024/04/20 03:00:56;;;;;;;1.05;0.82;;;;;;;;;;5484138;26;20010;-66
2024/04/20 03:03:27;;;;;;;0.95;0.90;;;;;;;;;;5482380;26;20002;-67
2024/04/20 03:05:57;;;;;;;2.97;1.08;;;;;;;;;;5477825;26;20366;-68
2024/04/20 03:08:28;;;;;;;2.00;0.82;;;;;;;;;;5473931;26;20446;-66
2024/04/20 03:10:58;;;;;;;2.40;0.77;;;;;;;;;;5484674;26;20059;-68
2024/04/20 03:13:31;;;;;;;1.20;1.10;;;;;;;;;;5479543;26;20009;-67
2024/04/20 03:16:03;;;;;;;1.98;1.08;;;;;;;;;;5480201;26;19998;-67
2024/04/20 03:18:35;;;;;;;2.83;1.00;;;;;;;;;;5482761;26;20448;-66
2024/04/20 03:21:06;;;;;;;1.30;0.73;;;;;;;;;;5472425;26;20010;-65
2024/04/20 03:23:37;;;;;;;1.05;0.77;;;;;;;;;;5491937;26;20443;-67
2024/04/20 03:26:07;;;;;;;0.88;0.88;;;;;;;;;;5481281;26;20017;-67
2024/04/20 03:28:40;;;;;;;0.82;0.80;;;;;;;;;;5489002;26;19993;-67
2024/04/20 03:31:10;;;;;;;0.90;0.90;;;;;;;;;;5485039;26;20493;-67
2024/04/20 03:33:40;;;;;;;1.00;0.90;;;;;;;;;;5489553;26;20078;-67
2024/04/20 03:36:10;;;;;;;0.90;0.80;;;;;;;;;;5482176;26;20017;-68
2024/04/20 03:38:41;;;;;;;1.45;0.93;;;;;;;;;;5481380;26;20070;-66
2024/04/20 03:41:12;;;;;;;1.25;1.00;;;;;;;;;;5483155;26;20413;-68
2024/04/20 03:43:44;;;;;;;1.40;0.95;;;;;;;;;;5483783;26;20002;-67
2024/04/20 03:46:15;;;;;;;1.10;1.00;;;;;;;;;;5493561;26;20014;-67
2024/04/20 03:48:45;;;;;;;0.95;0.93;;;;;;;;;;5483975;26;20039;-68
2024/04/20 03:51:15;;;;;;;3.55;1.17;;;;;;;;;;5490262;26;20014;-68
2024/04/20 03:53:45;;;;;;;0.80;0.80;;;;;;;;;;5483428;26;20569;-67
2024/04/20 03:56:19;;;;;;;1.40;1.00;;;;;;;;;;5481713;26;20006;-69
2024/04/20 03:58:52;;;;;;;1.88;1.10;;;;;;;;;;5491574;26;20223;-66
2024/04/20 04:01:22;;;;;;;2.35;0.90;;;;;;;;;;5490180;26;20075;-68
2024/04/20 04:03:53;;;;;;;1.30;1.00;;;;;;;;;;5487983;26;20031;-67
2024/04/20 04:06:23;;;;;;;1.42;1.17;;;;;;;;;;5481122;26;20373;-67
2024/04/20 04:08:53;;;;;;;1.05;0.93;;;;;;;;;;5478299;26;20002;-68
2024/04/20 04:11:23;;;;;;;1.55;0.90;;;;;;;;;;5482862;26;20013;-67
2024/04/20 04:13:56;;;;;;;1.40;0.90;;;;;;;;;;5482105;26;20073;-68
2024/04/20 04:16:26;;;;;;;1.25;1.00;;;;;;;;;;5481973;26;20009;-66
2024/04/20 04:18:56;;;;;;;1.38;1.27;;;;;;;;;;5474096;26;20002;-68
2024/04/20 04:21:27;;;;;;;1.45;0.90;;;;;;;;;;5479439;26;20002;-67
2024/04/20 04:23:57;;;;;;;1.20;0.93;;;;;;;;;;5481900;26;20079;-66
2024/04/20 04:26:27;;;;;;;1.30;0.90;;;;;;;;;;5472283;26;20002;-66
2024/04/20 04:29:00;;;;;;;1.70;1.02;;;;;;;;;;5481986;26;20013;-66
2024/04/20 04:31:30;;;;;;;1.05;0.95;;;;;;;;;;5474731;26;20006;-67
2024/04/20 04:34:00;;;;;;;2.42;1.10;;;;;;;;;;5475442;26;20447;-66
2024/04/20 04:36:30;;;;;;;1.08;0.82;;;;;;;;;;5466637;26;20017;-66
2024/04/20 04:39:00;;;;;;;0.93;0.93;;;;;;;;;;5467522;26;20006;-66
2024/04/20 04:41:30;;;;;;;2.35;1.20;;;;;;;;;;5479500;26;20904;-67
2024/04/20 04:44:03;;;;;;;0.85;0.85;;;;;;;;;;5483111;26;20009;-67
2024/04/20 04:46:33;;;;;;;1.00;0.93;;;;;;;;;;5475214;26;20013;-68
2024/04/20 04:49:03;;;;;;;3.75;1.02;;;;;;;;;;5485593;26;20475;-67
2024/04/20 04:51:34;;;;;;;1.15;1.05;;;;;;;;;;5490082;26;20014;-67
2024/04/20 04:54:04;;;;;;;1.58;1.13;;;;;;;;;;5482592;26;20002;-68
2024/04/20 04:56:34;;;;;;;1.52;1.20;;;;;;;;;;5488705;26;20013;-66
2024/04/20 04:59:07;;;;;;;1.23;1.13;;;;;;;;;;5486159;26;19994;-65
2024/04/20 05:01:38;;;;;;;1.10;1.10;;;;;;;;;;5484997;26;20002;-66
2024/04/20 05:04:09;;;;;;;1.77;1.20;;;;;;;;;;5475641;26;20449;-67
2024/04/20 05:06:41;;;;;;;1.20;1.10;;;;;;;;;;5485534;26;20006;-66
2024/04/20 05:09:11;;;;;;;1.17;1.05;;;;;;;;;;5493788;26;20016;-66
2024/04/20 05:11:42;;;;;;;1.20;1.10;;;;;;;;;;5482560;26;20475;-66
2024/04/20 05:14:15;;;;;;;1.10;1.10;;;;;;;;;;5479570;26;20464;-66
2024/04/20 05:16:47;;;;;;;2.20;1.20;;;;;;;;;;5467142;26;19999;-66
2024/04/20 05:19:17;;;;;;;0.90;0.90;;;;;;;;;;5489048;26;20010;-65
2024/04/20 05:21:47;;;;;;;1.35;1.20;;;;;;;;;;5478717;26;20012;-66
2024/04/20 05:24:17;;;;;;;1.50;1.25;;;;;;;;;;5482103;26;20401;-67
2024/04/20 05:26:49;;;;;;;1.20;0.90;;;;;;;;;;5479706;26;20010;-66
2024/04/20 05:29:22;;;;;;;0.90;0.90;;;;;;;;;;5486151;26;19998;-66
2024/04/20 05:31:52;;;;;;;1.55;1.20;;;;;;;;;;5482717;26;19998;-66
2024/04/20 05:34:22;;;;;;;1.00;0.93;;;;;;;;;;5483888;26;20009;-67
2024/04/20 05:36:53;;;;;;;1.05;1.05;;;;;;;;;;5482599;26;20021;-67
2024/04/20 05:39:23;;;;;;;2.58;1.30;;;;;;;;;;5483328;26;20012;-66
2024/04/20 05:41:53;;;;;;;1.58;1.30;;;;;;;;;;5484811;26;20016;-67
2024/04/20 05:44:27;;;;;;;1.60;1.00;;;;;;;;;;5484539;26;20026;-66
2024/04/20 05:46:57;;;;;;;1.08;1.00;;;;;;;;;;5483208;26;20538;-68
2024/04/20 05:49:27;;;;;;;2.38;1.30;;;;;;;;;;5485039;26;20356;-65
2024/04/20 05:51:58;;;;;;;1.73;1.48;;;;;;;;;;5482973;26;20137;-66
2024/04/20 05:54:28;;;;;;;1.27;1.17;;;;;;;;;;5481883;26;20002;-66
2024/04/20 05:56:58;;;;;;;2.22;1.25;;;;;;;;;;5479494;26;20351;-66
2024/04/20 05:59:31;;;;;;;2.70;1.42;;;;;;;;;;5481951;26;19998;-67
2024/04/20 06:02:01;;;;;;;2.20;1.30;;;;;;;;;;5479227;26;20006;-68
2024/04/20 06:04:31;;;;;;;2.20;1.48;;;;;;;;;;5482073;26;19995;-66
2024/04/20 06:07:01;;;;;;;1.60;1.33;;;;;;;;;;5482272;26;20323;-67
2024/04/20 06:09:31;;;;;;;2.58;1.40;;;;;;;;;;5476489;26;20001;-66
2024/04/20 06:12:02;;;;;;;1.85;1.30;;;;;;;;;;5470474;26;20007;-67
2024/04/20 06:14:34;;;;;;;1.40;1.23;;;;;;;;;;5486946;26;20459;-66
2024/04/20 06:17:05;;;;;;;1.40;1.30;;;;;;;;;;5506580;26;20011;-66
2024/04/20 06:19:35;;;;;;;1.08;0.98;;;;;;;;;;5483736;26;20074;-67
2024/04/20 06:22:05;;;;;;;1.63;1.10;;;;;;;;;;5496187;26;20358;-66
2024/04/20 06:24:37;;;;;;;1.88;1.15;;;;;;;;;;5492410;26;20070;-67
2024/04/20 06:27:07;;;;;;;1.52;1.42;;;;;;;;;;5504060;26;20002;-66
2024/04/20 06:29:40;;;;;;;1.70;1.05;;;;;;;;;;5484555;26;20002;-66
2024/04/20 06:32:10;;;;;;;2.22;1.15;;;;;;;;;;5484962;26;20470;-66
2024/04/20 06:34:40;;;;;;;1.40;1.23;;;;;;;;;;5501800;26;20012;-66
2024/04/20 06:37:11;;;;;;;1.35;1.17;;;;;;;;;;5499603;26;20506;-66
2024/04/20 06:39:42;;;;;;;1.90;1.20;;;;;;;;;;5515217;26;20074;-66
2024/04/20 06:42:12;;;;;;;1.15;1.05;;;;;;;;;;5520770;26;20005;-66
2024/04/20 06:44:46;;;;;;;1.90;1.00;;;;;;;;;;5494961;26;20022;-68
2024/04/20 06:47:16;;;;;;;2.55;1.25;;;;;;;;;;5493986;26;20017;-67
2024/04/20 06:49:46;;;;;;;2.47;1.20;;;;;;;;;;5501016;26;20070;-66
2024/04/20 06:52:16;;;;;;;1.63;1.10;;;;;;;;;;5507636;26;20453;-67
2024/04/20 06:54:49;;;;;;;1.80;1.45;;;;;;;;;;5484792;26;20451;-66
2024/04/20 06:57:19;;;;;;;1.33;1.23;;;;;;;;;;5504293;26;20005;-69
2024/04/20 06:59:56;;;;;;;1.38;1.17;;;;;;;;;;5499377;26;20002;-69
2024/04/20 07:02:26;;;;;;;1.20;1.10;;;;;;;;;;5491064;26;20005;-68
2024/04/20 07:04:56;;;;;;;1.25;1.13;;;;;;;;;;5506945;26;20001;-68
2024/04/20 07:07:26;;;;;;;1.20;1.10;;;;;;;;;;5493069;26;20078;-67
2024/04/20 07:09:56;;;;;;;2.55;1.02;;;;;;;;;;5505987;26;19994;-67
2024/04/20 07:12:26;;;;;;;1.90;1.17;;;;;;;;;;5469005;26;20003;-67
2024/04/20 07:14:59;;;;;;;1.75;1.20;;;;;;;;;;5475946;26;20347;-67
2024/04/20 07:17:29;;;;;;;2.17;1.27;;;;;;;;;;5464750;26;20002;-66
2024/04/20 07:20:00;;;;;;;2.08;1.25;;;;;;;;;;5479385;26;20014;-66
2024/04/20 07:22:30;;;;;;;1.77;1.15;;;;;;;;;;5500828;26;20002;-67
2024/04/20 07:25:00;;;;;;;1.48;1.38;;;;;;;;;;5486021;26;19998;-66
2024/04/20 07:27:30;;;;;;;1.70;1.55;;;;;;;;;;5483681;26;20010;-66
2024/04/20 07:30:04;;;;;;;1.20;1.10;;;;;;;;;;5492051;26;19997;-66
2024/04/20 07:32:34;;;;;;;2.50;1.23;;;;;;;;;;5496123;26;20018;-66
2024/04/20 07:35:04;;;;;;;1.58;1.20;;;;;;;;;;5496836;26;20511;-66
2024/04/20 07:37:34;;;;;;;3.60;1.40;;;;;;;;;;5491749;26;20129;-66
2024/04/20 07:40:06;;;;;;;1.35;1.25;;;;;;;;;;5513833;26;20454;-65
2024/04/20 07:42:36;;;;;;;1.20;1.10;;;;;;;;;;5508194;26;20018;-66
2024/04/20 07:45:09;;;;;;;1.92;0.98;;;;;;;;;;5498997;26;20339;-66
2024/04/20 07:47:39;;;;;;;3.15;1.27;;;;;;;;;;5485166;26;20013;-68
2024/04/20 07:50:12;;;;;;;1.10;1.00;;;;;;;;;;5502904;26;20494;-67
2024/04/20 07:52:42;;;;;;;2.33;1.27;;;;;;;;;;5504833;26;20042;-66
2024/04/20 07:55:12;;;;;;;4.20;1.20;;;;;;;;;;5483323;26;19998;-67
2024/04/20 07:57:42;;;;;;;1.35;1.10;;;;;;;;;;5497156;26;20016;-67
2024/04/20 08:00:16;;;;;;;1.30;1.20;;;;;;;;;;5512645;26;20033;-66
2024/04/20 08:02:46;;;;;;;1.92;1.00;;;;;;;;;;5467827;26;20014;-67
2024/04/20 08:05:17;;;;;;;1.25;1.15;;;;;;;;;;5484859;26;20523;-66
2024/04/20 08:07:47;;;;;;;3.17;1.35;;;;;;;;;;5471427;26;19999;-66
2024/04/20 08:10:17;;;;;;;1.15;1.05;;;;;;;;;;5478052;26;20009;-67
2024/04/20 08:12:47;;;;;;;1.33;1.00;;;;;;;;;;5480722;26;20021;-65
2024/04/20 08:15:20;;;;;;;1.02;0.98;;;;;;;;;;5483236;26;20017;-66
2024/04/20 08:17:50;;;;;;;1.35;1.00;;;;;;;;;;5482261;26;20010;-66
2024/04/20 08:20:22;;;;;;;1.35;1.10;;;;;;;;;;5480654;26;20558;-66
2024/04/20 08:22:52;;;;;;;1.70;0.95;;;;;;;;;;5493066;26;20017;-66
2024/04/20 08:25:22;;;;;;;1.40;1.10;;;;;;;;;;5474298;26;20025;-66
2024/04/20 08:27:52;;;;;;;1.10;1.00;;;;;;;;;;5491918;26;20006;-66
2024/04/20 08:30:25;;;;;;;1.73;1.20;;;;;;;;;;5505163;26;20014;-66
2024/04/20 08:32:55;;;;;;;2.67;1.40;;;;;;;;;;5479695;26;20014;-67
2024/04/20 08:35:26;;;;;;;0.90;0.90;;;;;;;;;;5470078;26;20013;-67
2024/04/20 08:37:56;;;;;;;1.25;1.10;;;;;;;;;;5486349;26;20010;-65
2024/04/20 08:40:28;;;;;;;2.03;1.35;;;;;;;;;;5487003;26;20078;-66
2024/04/20 08:42:58;;;;;;;4.32;1.65;;;;;;;;;;5485410;26;19999;-66
2024/04/20 08:45:32;;;;;;;1.58;1.00;;;;;;;;;;5486012;26;19998;-66
2024/04/20 08:48:02;;;;;;;2.70;1.00;;;;;;;;;;5431957;26;20015;-65
2024/04/20 08:50:33;;;;;;;0.85;0.85;;;;;;;;;;5486282;26;20079;-64
2024/04/20 08:53:03;;;;;;;1.10;1.00;;;;;;;;;;5486416;26;20013;-67
2024/04/20 08:55:34;;;;;;;1.67;1.10;;;;;;;;;;5485541;26;20078;-66
2024/04/20 08:58:05;;;;;;;1.13;1.02;;;;;;;;;;5473075;26;20002;-67
2024/04/20 09:00:39;;;;;;;1.42;1.13;;;;;;;;;;5484737;26;20017;-66
2024/04/20 09:03:10;;;;;;;1.20;1.10;;;;;;;;;;5481440;26;20002;-67
2024/04/20 09:05:41;;;;;;;1.40;1.00;;;;;;;;;;5480809;26;19998;-67
2024/04/20 09:08:11;;;;;;;1.38;1.20;;;;;;;;;;5483356;26;19998;-69
2024/04/20 09:10:41;;;;;;;1.73;1.17;;;;;;;;;;5462132;26;20016;-68
2024/04/20 09:13:14;;;;;;;1.58;1.00;;;;;;;;;;5462509;26;20003;-67
2024/04/20 09:15:47;;;;;;;1.92;1.30;;;;;;;;;;5470820;26;20014;-66
2024/04/20 09:18:19;;;;;;;1.85;1.27;;;;;;;;;;5482581;26;20038;-67
2024/04/20 09:20:50;;;;;;;1.35;0.95;;;;;;;;;;5483919;26;20389;-67
2024/04/20 09:23:23;;;;;;;2.33;1.05;;;;;;;;;;5504245;26;20696;-66
2024/04/20 09:25:53;;;;;;;1.88;1.20;;;;;;;;;;5503435;26;20002;-69
2024/04/20 09:28:32;;;;;;;1.35;1.00;;;;;;;;;;5494950;26;20001;-68
2024/04/20 09:31:05;;;;;;;3.05;1.10;;;;;;;;;;5497156;26;20014;-67
2024/04/20 09:33:36;;;;;;;2.15;1.15;;;;;;;;;;5483954;26;20013;-67
2024/04/20 09:36:07;;;;;;;1.35;0.75;;;;;;;;;;5497643;26;20328;-67
2024/04/20 09:38:37;;;;;;;1.50;0.95;;;;;;;;;;5492640;26;20451;-68
2024/04/20 09:41:10;;;;;;;1.48;1.27;;;;;;;;;;5481927;26;20002;-66
2024/04/20 09:43:43;;;;;;;1.55;1.00;;;;;;;;;;5482319;26;20371;-65
2024/04/20 09:46:16;;;;;;;1.02;0.95;;;;;;;;;;5482278;26;20052;-65
2024/04/20 09:48:46;;;;;;;2.45;1.20;;;;;;;;;;5483101;26;19998;-66
2024/04/20 09:51:19;;;;;;;2.03;0.95;;;;;;;;;;5482537;26;20042;-66
2024/04/20 09:53:53;;;;;;;1.08;1.00;;;;;;;;;;5481018;26;19998;-65
2024/04/20 09:56:24;;;;;;;2.38;0.90;;;;;;;;;;5458228;26;20516;-65
2024/04/20 09:58:56;;;;;;;1.10;0.90;;;;;;;;;;5483778;26;20014;-65
2024/04/20 10:01:29;;;;;;;2.35;0.90;;;;;;;;;;5490667;26;20527;-65
2024/04/20 10:03:59;;;;;;;1.88;1.00;;;;;;;;;;5488438;26;20463;-67
2024/04/20 10:06:30;;;;;;;1.33;0.70;;;;;;;;;;5486944;26;20017;-65
2024/04/20 10:09:01;;;;;;;2.47;1.23;;;;;;;;;;5500421;26;19998;-65
2024/04/20 10:11:32;;;;;;;1.60;1.02;;;;;;;;;;5490831;26;19998;-66
2024/04/20 10:14:03;;;;;;;0.80;0.80;;;;;;;;;;5471459;26;20006;-65
2024/04/20 10:16:37;;;;;;;0.93;0.70;;;;;;;;;;5482761;26;20410;-65
2024/04/20 10:19:07;;;;;;;0.80;0.80;;;;;;;;;;5488862;26;20002;-65
2024/04/20 10:21:39;;;;;;;1.00;0.90;;;;;;;;;;5495326;26;20005;-66
2024/04/20 10:24:12;;;;;;;1.63;1.00;;;;;;;;;;5496314;26;20009;-66
2024/04/20 10:26:46;;;;;;;2.08;0.85;;;;;;;;;;5498421;26;19997;-66
2024/04/20 10:29:24;;;;;;;0.80;0.80;;;;;;;;;;5483837;26;20042;-65
2024/04/20 10:32:06;;;;;;;1.17;0.70;;;;;;;;;;5471012;26;20006;-66
2024/04/20 10:34:36;;;;;;;1.17;0.60;;;;;;;;;;5476571;26;20465;-67
2024/04/20 10:37:09;;;;;;;0.60;0.60;;;;;;;;;;5482039;26;20848;-66
2024/04/20 10:39:39;;;;;;;1.67;0.70;;;;;;;;;;5488711;26;20016;-66
2024/04/20 10:42:11;;;;;;;0.80;0.80;;;;;;;;;;5491056;26;19998;-65
2024/04/20 10:44:41;;;;;;;1.08;0.90;;;;;;;;;;5496662;26;20495;-67
2024/04/20 10:47:21;;;;;;;0.80;0.80;;;;;;;;;;5485320;26;20486;-65
2024/04/20 10:49:51;;;;;;;2.70;1.17;;;;;;;;;;5471627;26;20014;-65
2024/04/20 10:52:23;;;;;;;1.08;0.98;;;;;;;;;;5492197;26;20412;-65
2024/04/20 10:54:53;;;;;;;1.20;0.95;;;;;;;;;;5480934;26;20010;-67
2024/04/20 10:57:26;;;;;;;1.63;1.00;;;;;;;;;;5479228;26;20002;-66
2024/04/20 10:59:57;;;;;;;1.23;1.00;;;;;;;;;;5481130;26;20320;-66
2024/04/20 11:02:29;;;;;;;3.60;1.00;;;;;;;;;;5481594;26;20585;-65
2024/04/20 11:05:01;;;;;;;1.30;0.80;;;;;;;;;;5480322;26;20387;-65
2024/04/20 11:07:31;;;;;;;0.90;0.80;;;;;;;;;;5480850;26;20367;-65
2024/04/20 11:10:01;;;;;;;0.90;0.90;;;;;;;;;;5480078;26;20002;-65
2024/04/20 11:12:31;;;;;;;1.05;1.00;;;;;;;;;;5473580;26;20022;-66
2024/04/20 11:15:03;;;;;;;1.08;0.90;;;;;;;;;;5480715;26;20030;-64
2024/04/20 11:17:37;;;;;;;1.23;1.00;;;;;;;;;;5463676;26;20091;-64
2024/04/20 11:20:08;;;;;;;1.20;0.98;;;;;;;;;;5469122;26;20075;-66
2024/04/20 11:22:38;;;;;;;1.52;0.88;;;;;;;;;;5478039;26;20044;-68
2024/04/20 11:25:12;;;;;;;1.48;1.00;;;;;;;;;;5460856;26;20003;-66
2024/04/20 11:27:45;;;;;;;0.95;0.85;;;;;;;;;;5448528;26;20007;-65
2024/04/20 11:30:16;;;;;;;0.80;0.80;;;;;;;;;;5449406;26;20007;-66
2024/04/20 11:32:58;;;;;;;2.42;1.10;;;;;;;;;;5445603;26;20063;-67
2024/04/20 11:35:29;;;;;;;1.70;1.00;;;;;;;;;;5446315;26;20434;-65
2024/04/20 11:38:06;;;;;;;0.70;0.70;;;;;;;;;;5446557;26;20062;-66
2024/04/20 11:40:36;;;;;;;1.50;1.00;;;;;;;;;;5448068;26;20011;-66
2024/04/20 11:43:06;;;;;;;0.80;0.80;;;;;;;;;;5445375;26;20021;-68
2024/04/20 11:45:37;;;;;;;1.08;0.70;;;;;;;;;;5444315;26;20485;-68
2024/04/20 11:48:10;;;;;;;1.95;0.90;;;;;;;;;;5450112;26;20014;-65
2024/04/20 11:50:42;;;;;;;0.90;0.90;;;;;;;;;;5441620;26;20057;-65
2024/04/20 11:55:59;;;;;;;1.42;0.80;;;;;;;;;;5446352;26;20378;-66
2024/04/20 11:58:30;;;;;;;1.65;1.00;;;;;;;;;;5449431;26;20008;-66
2024/04/20 12:01:01;;;;;;;1.25;0.90;;;;;;;;;;5449161;26;20007;-67
2024/04/20 12:03:34;;;;;;;1.40;0.95;;;;;;;;;;5448251;26;20038;-63
2024/04/20 12:06:06;;;;;;;1.25;1.08;;;;;;;;;;5445704;26;20381;-65
2024/04/20 12:08:37;;;;;;;1.30;1.10;;;;;;;;;;5444730;26;20075;-65
2024/04/20 12:11:07;;;;;;;1.77;0.93;;;;;;;;;;5446777;26;20072;-63
2024/04/20 12:13:37;;;;;;;0.80;0.70;;;;;;;;;;5448419;26;20046;-64
2024/04/20 12:16:10;;;;;;;0.80;0.80;;;;;;;;;;5446487;26;20010;-64
2024/04/20 12:18:43;;;;;;;1.73;1.30;;;;;;;;;;5446342;26;20467;-64
2024/04/20 12:21:16;;;;;;;0.85;0.80;;;;;;;;;;5448005;26;20003;-65
2024/04/20 12:23:46;;;;;;;0.80;0.70;;;;;;;;;;5446837;26;20084;-65
2024/04/20 12:26:17;;;;;;;1.25;0.90;;;;;;;;;;5428796;26;20336;-66
2024/04/20 12:28:47;;;;;;;1.52;1.00;;;;;;;;;;5429106;26;20075;-63
2024/04/20 12:31:17;;;;;;;2.00;1.10;;;;;;;;;;5429069;26;20610;-65
2024/04/20 12:33:54;;;;;;;1.88;0.98;;;;;;;;;;5436300;26;20106;-65
2024/04/20 12:36:25;;;;;;;1.08;0.60;;;;;;;;;;5434013;26;20010;-64
2024/04/20 12:38:55;;;;;;;0.60;0.60;;;;;;;;;;5427031;26;20068;-64
2024/04/20 12:41:26;;;;;;;2.92;0.90;;;;;;;;;;5424212;26;20003;-65
2024/04/20 12:43:56;;;;;;;0.80;0.68;;;;;;;;;;5425558;26;20579;-64
2024/04/20 12:46:26;;;;;;;0.88;0.77;;;;;;;;;;5430644;26;19999;-64
2024/04/20 12:48:59;;;;;;;0.70;0.68;;;;;;;;;;5435888;26;20007;-65
2024/04/20 12:51:29;;;;;;;0.65;0.65;;;;;;;;;;5428697;26;20035;-66
2024/04/20 12:53:59;;;;;;;0.77;0.75;;;;;;;;;;5430579;26;20338;-66
2024/04/20 12:56:30;;;;;;;0.68;0.68;;;;;;;;;;5421314;26;20019;-64
2024/04/20 12:59:01;;;;;;;1.38;0.82;;;;;;;;;;5430572;26;20040;-65
2024/04/20 13:01:32;;;;;;;0.90;0.90;;;;;;;;;;5425415;26;20007;-66
2024/04/20 13:04:05;;;;;;;1.95;0.73;;;;;;;;;;5428715;26;20010;-65
2024/04/20 13:06:38;;;;;;;0.70;0.70;;;;;;;;;;5435469;26;20019;-64
2024/04/20 13:09:09;;;;;;;0.63;0.60;;;;;;;;;;5425192;26;20038;-67
2024/04/20 13:11:39;;;;;;;1.35;0.80;;;;;;;;;;5432715;26;20019;-64
2024/04/20 13:14:09;;;;;;;1.00;0.90;;;;;;;;;;5435820;26;20014;-65
2024/04/20 13:16:43;;;;;;;0.90;0.90;;;;;;;;;;5432819;26;20003;-63
2024/04/20 13:19:18;;;;;;;0.75;0.75;;;;;;;;;;5427566;26;20546;-65
2024/04/20 13:21:48;;;;;;;0.60;0.60;;;;;;;;;;5439536;26;20482;-65
2024/04/20 13:24:18;;;;;;;1.25;0.80;;;;;;;;;;5437771;26;20091;-66
2024/04/20 13:26:48;;;;;;;0.98;0.93;;;;;;;;;;5482294;26;19994;-64
2024/04/20 13:29:31;;;;;;;0.60;0.60;;;;;;;;;;5485308;26;20005;-64
2024/04/20 13:32:01;;;;;;;0.73;0.73;;;;;;;;;;5483978;26;19998;-63
2024/04/20 13:34:39;;;;;;;1.17;0.70;;;;;;;;;;5482011;26;20384;-64
2024/04/20 13:37:10;;;;;;;0.82;0.80;;;;;;;;;;5480981;26;20059;-66
2024/04/20 13:39:40;;;;;;;1.00;0.77;;;;;;;;;;5483002;26;20018;-66
2024/04/20 13:42:11;;;;;;;0.70;0.70;;;;;;;;;;5490828;26;20071;-65
2024/04/20 13:44:41;;;;;;;0.60;0.60;;;;;;;;;;5484843;26;20017;-66
2024/04/20 13:47:11;;;;;;;0.80;0.60;;;;;;;;;;5483658;26;20094;-66
2024/04/20 13:49:44;;;;;;;0.60;0.60;;;;;;;;;;5483955;26;20018;-65
2024/04/20 13:52:14;;;;;;;0.50;0.50;;;;;;;;;;5474186;26;20010;-65
2024/04/20 13:54:44;;;;;;;1.80;0.70;;;;;;;;;;5485107;26;20002;-66
2024/04/20 13:57:15;;;;;;;0.73;0.70;;;;;;;;;;5484132;26;20008;-65
2024/04/20 13:59:45;;;;;;;0.70;0.70;;;;;;;;;;5484134;26;21727;-66
2024/04/20 14:02:15;;;;;;;1.15;0.60;;;;;;;;;;5483613;26;20017;-67
2024/04/20 14:04:48;;;;;;;0.63;0.63;;;;;;;;;;5483568;26;20075;-67
2024/04/20 14:07:18;;;;;;;2.63;0.77;;;;;;;;;;5484279;26;20006;-64
2024/04/20 14:09:50;;;;;;;0.70;0.70;;;;;;;;;;5482847;26;20006;-68
2024/04/20 14:12:22;;;;;;;2.72;0.77;;;;;;;;;;5461062;26;20327;-67
2024/04/20 14:14:53;;;;;;;1.02;0.63;;;;;;;;;;5479766;26;20018;-67
2024/04/20 14:17:24;;;;;;;0.50;0.50;;;;;;;;;;5484603;26;19998;-64
2024/04/20 14:19:57;;;;;;;1.17;0.80;;;;;;;;;;5484751;26;20024;-66
2024/04/20 14:22:24;;;;;;;0.95;0.70;;;;;;;;;;5483209;26;20002;-65
2024/04/20 14:24:54;;;;;;;0.73;0.68;;;;;;;;;;5482946;26;20451;-66
2024/04/20 14:27:24;;;;;;;0.80;0.80;;;;;;;;;;5484444;26;20002;-66
2024/04/20 14:29:55;;;;;;;1.25;0.70;;;;;;;;;;5485136;26;20002;-65
2024/04/20 14:32:25;;;;;;;0.60;0.60;;;;;;;;;;5483285;26;20010;-65
2024/04/20 14:34:59;;;;;;;0.70;0.70;;;;;;;;;;5474340;26;20037;-66
2024/04/20 14:37:29;;;;;;;0.60;0.60;;;;;;;;;;5481980;26;20450;-65
2024/04/20 14:40:00;;;;;;;0.65;0.60;;;;;;;;;;5484354;26;20552;-64
2024/04/20 14:42:30;;;;;;;0.77;0.50;;;;;;;;;;5477806;26;20024;-64
2024/04/20 14:45:00;;;;;;;1.88;0.70;;;;;;;;;;5482266;26;20013;-65
2024/04/20 14:47:32;;;;;;;2.38;0.80;;;;;;;;;;5481644;26;20002;-65
2024/04/20 14:50:05;;;;;;;0.73;0.60;;;;;;;;;;5480924;26;20009;-66
2024/04/20 14:52:32;;;;;;;0.85;0.60;;;;;;;;;;5482271;26;20296;-64
2024/04/20 14:55:05;;;;;;;0.70;0.50;;;;;;;;;;5482524;26;20034;-64
2024/04/20 14:57:35;;;;;;;0.68;0.52;;;;;;;;;;5481184;26;20002;-66
2024/04/20 15:00:07;;;;;;;0.50;0.50;;;;;;;;;;5481782;26;20038;-64
2024/04/20 15:02:37;;;;;;;1.85;0.50;;;;;;;;;;5483867;26;19998;-65
2024/04/20 15:05:10;;;;;;;0.65;0.60;;;;;;;;;;5479275;26;20002;-64
2024/04/20 15:07:37;;;;;;;1.27;0.75;;;;;;;;;;5480381;26;20006;-66
2024/04/20 15:10:08;;;;;;;0.60;0.60;;;;;;;;;;5482506;26;20347;-67